Time;durP1;ratioP1;P1;durP2;ratioP2;P2;SDS_P1;SDS_P2;PMS_P1;PMS_P2;Temp;Humidity;BMP_temperature;BMP_pressure;BME280_temperature;BME280_humidity;BME280_pressure;Samples;Min_cycle;Max_cycle;Signal;HPM_P1;HPM_P2
2022/01/31 05:26:56;;;;;;;15.13;5.93;;;2.00;99.90;;;;;;6169171;23;20029;-87
2022/01/31 05:29:46;;;;;;;20.33;6.30;;;2.00;99.90;;;;;;6213003;23;20115;-90
2022/01/31 05:32:38;;;;;;;14.02;4.72;;;2.00;99.90;;;;;;6193963;23;20115;-87
2022/01/31 05:35:26;;;;;;;20.38;6.65;;;1.90;99.90;;;;;;6214596;23;20060;-89
2022/01/31 05:38:18;;;;;;;16.27;5.50;;;1.90;99.90;;;;;;6195418;23;20155;-90
2022/01/31 05:41:08;;;;;;;17.52;6.15;;;2.00;99.90;;;;;;6194252;23;20036;-87
2022/01/31 05:43:55;;;;;;;15.00;4.68;;;2.00;99.90;;;;;;6193524;23;20027;-90
2022/01/31 05:46:45;;;;;;;16.27;5.93;;;1.90;99.90;;;;;;6189495;23;20029;-87
2022/01/31 05:49:33;;;;;;;18.40;5.35;;;1.90;99.90;;;;;;6212413;23;20025;-89
2022/01/31 05:53:27;;;;;;;19.50;6.32;;;1.80;99.90;;;;;;6194393;23;20167;-90
2022/01/31 06:00:47;;;;;;;15.35;4.95;;;1.90;99.90;;;;;;6173198;23;20005;-88
2022/01/31 06:03:55;;;;;;;22.52;6.57;;;1.90;99.90;;;;;;6217782;23;20020;-86
2022/01/31 06:07:14;;;;;;;19.17;5.28;;;2.00;99.90;;;;;;6215403;22;20016;-91
2022/01/31 06:14:24;;;;;;;15.60;5.22;;;2.00;99.90;;;;;;6089378;23;20018;-89
2022/01/31 06:17:25;;;;;;;15.77;5.43;;;2.10;99.90;;;;;;6127121;23;20024;-89
2022/01/31 06:20:13;;;;;;;17.85;5.45;;;2.10;99.90;;;;;;6195897;23;20082;-86
2022/01/31 06:23:01;;;;;;;21.17;5.20;;;2.10;99.90;;;;;;6193108;23;20027;-87
2022/01/31 06:25:48;;;;;;;12.98;5.15;;;2.10;99.90;;;;;;6191694;23;20156;-88
2022/01/31 06:28:36;;;;;;;17.83;6.22;;;2.00;99.90;;;;;;6214088;23;20106;-89
2022/01/31 06:32:22;;;;;;;20.17;6.40;;;1.90;99.90;;;;;;6210042;23;20044;-88
2022/01/31 06:35:59;;;;;;;17.75;6.47;;;1.90;99.90;;;;;;6193484;23;20086;-82
2022/01/31 06:42:21;;;;;;;15.40;6.05;;;2.00;99.90;;;;;;6214404;22;20021;-86
2022/01/31 06:45:29;;;;;;;17.73;6.03;;;1.90;99.90;;;;;;6217879;23;20024;-92
2022/01/31 06:48:55;;;;;;;24.00;7.25;;;1.90;99.90;;;;;;6170789;23;20098;-86
2022/01/31 06:51:57;;;;;;;;;;;;;;;;;;;;;
2022/01/31 07:07:50;;;;;;;33.72;8.13;;;1.70;99.90;;;;;;5981168;23;20031;-86
2022/01/31 07:23:22;;;;;;;23.63;8.88;;;1.70;99.90;;;;;;6016937;23;20015;-89
2022/01/31 07:27:22;;;;;;;26.40;9.80;;;1.70;99.90;;;;;;6016091;23;20136;-88
2022/01/31 08:11:54;;;;;;;14.55;5.30;;;1.70;99.90;;;;;;6206128;22;1462689;-90
2022/01/31 08:15:08;;;;;;;9.18;4.85;;;1.80;99.90;;;;;;6203537;23;20025;-87
2022/01/31 08:18:56;;;;;;;;;;;;;;;;;;;;;
2022/01/31 08:22:49;;;;;;;6.97;4.28;;;1.80;99.90;;;;;;6100490;23;20408;-88
2022/01/31 08:26:20;;;;;;;6.85;4.07;;;1.90;99.90;;;;;;6226141;23;20021;-88
2022/01/31 08:30:05;;;;;;;;;;;;;;;;;;;;;
2022/01/31 08:36:53;;;;;;;3.05;2.75;;;2.10;99.90;;;;;;6095834;23;20317;-89
2022/01/31 08:39:57;;;;;;;4.47;3.05;;;2.20;99.90;;;;;;6066464;23;20034;-86
2022/01/31 08:46:22;;;;;;;3.63;1.98;;;2.20;99.90;;;;;;6094080;23;20026;-89
2022/01/31 08:49:52;;;;;;;4.32;2.40;;;2.20;99.90;;;;;;6100224;23;20217;-88
2022/01/31 08:52:56;;;;;;;6.15;2.20;;;2.30;99.90;;;;;;6101168;23;20044;-89
2022/01/31 08:56:01;;;;;;;3.17;1.70;;;2.40;99.90;;;;;;6101086;23;20093;-89
2022/01/31 08:59:14;;;;;;;4.00;1.88;;;2.60;99.90;;;;;;6222189;23;20115;-87
2022/01/31 09:02:36;;;;;;;3.90;1.92;;;2.70;99.90;;;;;;6221058;23;20032;-89
2022/01/31 09:09:41;;;;;;;1.60;1.48;;;2.70;99.90;;;;;;5928343;24;20032;-90
2022/01/31 09:17:44;;;;;;;;;;;;;;;;;;;;;
2022/01/31 09:33:22;;;;;;;2.33;1.08;;;5.10;99.90;;;;;;5990386;23;20419;-91
2022/01/31 09:49:08;;;;;;;2.85;1.52;;;5.70;99.90;;;;;;5866373;24;20018;-89
2022/01/31 09:51:54;;;;;;;7.70;1.90;;;6.10;99.90;;;;;;5828400;24;20100;-87
2022/01/31 09:54:47;;;;;;;4.60;1.40;;;6.00;99.90;;;;;;6016681;23;20089;-89
2022/01/31 09:57:38;;;;;;;4.50;1.95;;;5.60;99.90;;;;;;6188425;23;20028;-85
2022/01/31 10:00:33;;;;;;;4.68;2.08;;;5.60;99.90;;;;;;6209781;23;20369;-86
2022/01/31 10:03:24;;;;;;;7.55;1.98;;;5.40;99.90;;;;;;6194922;23;20024;-88
2022/01/31 10:06:27;;;;;;;7.20;2.15;;;5.30;99.90;;;;;;6194083;23;20021;-88
2022/01/31 10:09:50;;;;;;;5.07;1.83;;;5.20;99.90;;;;;;6211171;23;20031;-91
2022/01/31 10:19:25;;;;;;;8.15;2.20;;;4.70;99.90;;;;;;6214905;23;20032;-87
2022/01/31 10:26:55;;;;;;;;;;;;;;;;;;;;;
2022/01/31 11:15:30;;;;;;;8.38;2.05;;;5.00;99.90;;;;;;5470917;22;18215359;-91
2022/01/31 11:19:06;;;;;;;;;;;;;;;;;;;;;
2022/01/31 11:22:58;;;;;;;;;;;;;;;;;;;;;
2022/01/31 11:26:24;;;;;;;9.00;1.90;;;4.50;99.90;;;;;;6201513;23;20043;-88
2022/01/31 11:29:33;;;;;;;6.38;2.10;;;4.40;99.90;;;;;;6208709;23;20038;-87
2022/01/31 12:50:14;;;;;;;6.35;2.17;;;3.10;99.90;;;;;;6197335;23;20013;-92
2022/01/31 12:54:04;;;;;;;10.88;2.47;;;3.00;99.90;;;;;;6060983;23;20354;-92
2022/01/31 13:10:26;;;;;;;;;;;;;;;;;;;;;
2022/01/31 13:28:54;;;;;;;13.88;3.00;;;2.40;99.90;;;;;;6288947;22;20030;-83
2022/01/31 13:31:42;;;;;;;8.13;2.95;;;2.40;99.90;;;;;;6285671;22;20023;-86
2022/01/31 13:34:44;;;;;;;;;;;;;;;;;;;;;
2022/01/31 13:37:52;;;;;;;7.87;2.80;;;2.50;99.90;;;;;;6285466;22;20019;-85
2022/01/31 13:40:57;;;;;;;9.75;2.83;;;2.50;99.90;;;;;;6263046;22;20050;-88
2022/01/31 13:43:48;;;;;;;5.63;2.67;;;2.60;99.90;;;;;;6261994;22;20030;-88
2022/01/31 13:46:48;;;;;;;9.40;3.00;;;2.70;99.90;;;;;;6285558;22;20086;-84
2022/01/31 13:49:49;;;;;;;;;;;2.80;99.90;;;;;;6264002;22;20047;-85
2022/01/31 13:52:52;;;;;;;11.77;2.55;;;2.90;99.90;;;;;;6287518;22;19915;-83
2022/01/31 13:55:46;;;;;;;11.15;2.63;;;3.00;99.90;;;;;;6264470;22;20039;-85
2022/01/31 13:58:38;;;;;;;8.93;2.28;;;3.10;99.90;;;;;;6263989;22;20296;-85
2022/01/31 14:01:25;;;;;;;6.53;2.28;;;3.20;99.90;;;;;;6262795;22;20027;-86
2022/01/31 14:04:30;;;;;;;8.02;2.92;;;3.20;99.90;;;;;;6287189;22;20031;-87
2022/01/31 14:07:30;;;;;;;5.72;1.85;;;3.30;99.90;;;;;;6264669;22;20028;-87
2022/01/31 14:10:31;;;;;;;8.48;2.42;;;3.40;99.90;;;;;;6262754;22;20420;-85
2022/01/31 14:13:19;;;;;;;6.60;2.05;;;3.40;99.90;;;;;;6262009;22;20016;-89
2022/01/31 14:16:16;;;;;;;9.52;2.53;;;3.30;99.90;;;;;;6285655;22;20077;-88
2022/01/31 14:19:05;;;;;;;5.38;2.03;;;3.20;99.90;;;;;;6264323;22;20031;-85
2022/01/31 14:21:55;;;;;;;7.30;2.88;;;3.20;99.90;;;;;;6265003;22;20038;-85
2022/01/31 14:24:46;;;;;;;4.35;1.60;;;3.10;99.90;;;;;;6256508;22;20024;-85
2022/01/31 14:27:35;;;;;;;6.57;1.70;;;3.10;99.90;;;;;;6276630;22;20433;-84
2022/01/31 14:30:23;;;;;;;4.53;1.73;;;3.10;99.90;;;;;;6258069;22;20127;-84
2022/01/31 14:33:20;;;;;;;3.00;1.70;;;3.10;99.90;;;;;;6258488;22;20043;-88
2022/01/31 14:36:16;;;;;;;7.10;2.20;;;3.20;99.90;;;;;;6281383;22;20031;-84
2022/01/31 14:39:14;;;;;;;6.70;2.28;;;3.20;99.90;;;;;;6253783;22;20119;-83
2022/01/31 14:48:50;;;;;;;6.85;2.50;;;3.00;99.90;;;;;;6277738;22;20053;-85
2022/01/31 14:51:43;;;;;;;8.93;2.38;;;2.80;99.90;;;;;;6261003;22;20026;-84
2022/01/31 14:54:30;;;;;;;10.05;2.50;;;2.80;99.90;;;;;;6281502;22;20023;-85
2022/01/31 14:57:28;;;;;;;7.78;2.58;;;2.70;99.90;;;;;;6243556;22;20323;-86
2022/01/31 15:00:29;;;;;;;4.20;1.98;;;2.60;99.90;;;;;;6279469;22;20034;-83
2022/01/31 15:03:22;;;;;;;8.80;2.08;;;2.50;99.90;;;;;;6258155;22;20046;-87
2022/01/31 15:06:11;;;;;;;9.68;3.45;;;2.50;99.90;;;;;;6257801;22;20035;-82
2022/01/31 15:09:02;;;;;;;8.68;2.97;;;2.40;99.90;;;;;;6279342;22;20362;-84
2022/01/31 15:11:55;;;;;;;10.27;3.55;;;2.40;99.90;;;;;;6275981;22;20019;-82
2022/01/31 15:14:46;;;;;;;12.85;3.28;;;2.40;99.90;;;;;;6278607;22;20023;-83
2022/01/31 15:17:37;;;;;;;9.23;3.08;;;2.40;99.90;;;;;;6255857;22;20020;-84
2022/01/31 15:20:28;;;;;;;7.78;2.78;;;2.40;99.90;;;;;;6254363;22;20023;-86
2022/01/31 15:23:20;;;;;;;9.23;3.00;;;2.40;99.90;;;;;;6278266;22;20121;-84
2022/01/31 15:26:17;;;;;;;10.52;2.72;;;2.40;99.90;;;;;;6276070;22;20055;-85
2022/01/31 15:29:07;;;;;;;10.13;2.97;;;2.30;99.90;;;;;;6256931;22;20043;-85
2022/01/31 15:31:59;;;;;;;11.23;3.20;;;2.40;99.90;;;;;;6257783;22;20019;-84
2022/01/31 15:34:50;;;;;;;13.02;2.85;;;2.30;99.90;;;;;;6256134;22;20019;-86
2022/01/31 15:37:43;;;;;;;9.88;3.10;;;2.30;99.90;;;;;;6277885;22;20024;-83
2022/01/31 15:40:38;;;;;;;23.27;3.60;;;2.30;99.90;;;;;;6258778;22;20030;-83
2022/01/31 15:43:26;;;;;;;8.50;2.90;;;2.20;99.90;;;;;;6257873;22;20035;-87
2022/01/31 15:46:40;;;;;;;10.30;3.63;;;2.10;99.90;;;;;;6262745;22;20034;-85
2022/01/31 15:49:27;;;;;;;8.77;2.67;;;2.10;99.90;;;;;;6278807;22;20027;-84
2022/01/31 15:52:15;;;;;;;13.82;3.88;;;2.10;99.90;;;;;;6280303;22;20031;-84
2022/01/31 15:55:03;;;;;;;13.23;4.03;;;2.00;99.90;;;;;;6280167;22;20027;-82
2022/01/31 15:57:56;;;;;;;11.52;3.25;;;1.90;99.90;;;;;;6262248;22;20102;-84
2022/01/31 16:00:49;;;;;;;14.18;3.65;;;1.90;99.90;;;;;;6280329;22;20024;-85
2022/01/31 16:03:37;;;;;;;12.50;3.03;;;1.90;99.90;;;;;;6257114;22;20031;-85
2022/01/31 16:06:27;;;;;;;10.52;3.10;;;1.80;99.90;;;;;;6280620;22;20284;-83
2022/01/31 16:09:14;;;;;;;9.07;3.10;;;1.80;99.90;;;;;;6258298;22;20032;-83
2022/01/31 16:12:04;;;;;;;10.55;3.90;;;1.80;99.90;;;;;;6254472;22;20028;-85
2022/01/31 16:15:12;;;;;;;18.25;4.05;;;1.70;99.90;;;;;;6277431;22;20024;-83
2022/01/31 16:18:01;;;;;;;15.93;3.85;;;1.70;99.90;;;;;;6253156;22;20028;-86
2022/01/31 16:20:52;;;;;;;17.70;4.05;;;1.70;99.90;;;;;;6254239;22;20038;-85
2022/01/31 16:23:40;;;;;;;14.43;4.20;;;1.60;99.90;;;;;;6276649;22;20078;-87
2022/01/31 16:26:29;;;;;;;10.02;4.05;;;1.60;99.90;;;;;;6279332;22;20032;-85
2022/01/31 16:29:19;;;;;;;9.68;3.83;;;1.60;99.90;;;;;;6258219;22;20635;-85
2022/01/31 16:32:09;;;;;;;13.75;4.57;;;1.60;99.90;;;;;;6282216;22;20034;-84
2022/01/31 16:34:57;;;;;;;16.02;5.93;;;1.60;99.90;;;;;;6282904;22;20671;-84
2022/01/31 16:37:47;;;;;;;15.05;5.03;;;1.60;99.90;;;;;;6280448;22;20024;-83
2022/01/31 16:40:35;;;;;;;13.98;5.32;;;1.60;99.90;;;;;;6247470;22;20016;-83
2022/01/31 16:43:23;;;;;;;16.10;5.15;;;1.70;99.90;;;;;;6291127;22;20026;-85
2022/01/31 16:46:13;;;;;;;16.30;4.55;;;1.70;99.90;;;;;;6266217;22;20023;-82
2022/01/31 16:49:01;;;;;;;14.23;4.22;;;1.80;99.90;;;;;;6298089;22;20066;-87
2022/01/31 16:51:51;;;;;;;14.85;4.22;;;1.80;99.90;;;;;;6269992;22;20047;-84
2022/01/31 16:54:42;;;;;;;17.77;4.82;;;1.80;99.90;;;;;;6265979;22;20027;-87
2022/01/31 16:57:29;;;;;;;11.93;4.00;;;1.80;99.90;;;;;;6278668;22;20034;-86
2022/01/31 17:00:20;;;;;;;10.02;3.83;;;1.90;99.90;;;;;;6258387;22;20027;-85
2022/01/31 17:03:09;;;;;;;18.70;4.95;;;1.90;99.90;;;;;;6258804;22;20314;-88
2022/01/31 17:05:57;;;;;;;26.85;5.60;;;1.90;99.90;;;;;;6283597;22;20085;-85
2022/01/31 17:08:49;;;;;;;15.02;4.10;;;2.00;99.90;;;;;;6257056;22;20024;-83
2022/01/31 17:11:39;;;;;;;13.35;3.72;;;2.00;99.90;;;;;;6279890;22;20028;-84
2022/01/31 17:14:28;;;;;;;14.07;4.32;;;2.00;99.90;;;;;;6254241;22;20081;-82
2022/01/31 17:17:19;;;;;;;18.42;4.13;;;2.00;99.90;;;;;;6255455;22;20099;-85
2022/01/31 17:20:07;;;;;;;11.73;3.35;;;2.10;99.90;;;;;;6255096;22;20030;-86
2022/01/31 17:22:54;;;;;;;16.42;3.83;;;2.10;99.90;;;;;;6251897;22;20024;-83
2022/01/31 17:25:42;;;;;;;13.75;3.83;;;2.10;99.90;;;;;;6251107;22;20540;-86
2022/01/31 17:28:31;;;;;;;8.93;2.97;;;2.10;99.90;;;;;;6254644;22;20399;-84
2022/01/31 17:31:21;;;;;;;10.63;3.50;;;2.20;99.90;;;;;;6277387;22;20367;-85
2022/01/31 17:34:11;;;;;;;;;;;2.20;99.90;;;;;;6273106;22;20312;-84
2022/01/31 17:36:58;;;;;;;12.80;3.75;;;2.20;99.90;;;;;;6255543;22;19959;-85
2022/01/31 17:39:47;;;;;;;10.63;3.38;;;2.20;99.90;;;;;;6252337;22;20087;-83
2022/01/31 17:42:36;;;;;;;13.23;3.78;;;2.20;99.90;;;;;;6277681;22;20042;-83
2022/01/31 17:45:29;;;;;;;12.90;3.65;;;2.10;99.90;;;;;;6251611;22;20081;-85
2022/01/31 17:48:17;;;;;;;15.75;3.65;;;2.10;99.90;;;;;;6253655;22;20031;-87
2022/01/31 17:51:09;;;;;;;14.90;2.90;;;2.10;99.90;;;;;;6255123;22;20395;-84
2022/01/31 17:54:01;;;;;;;15.05;3.67;;;2.10;99.90;;;;;;6253347;22;20073;-82
2022/01/31 17:56:52;;;;;;;11.90;3.90;;;2.00;99.90;;;;;;6276405;22;20028;-83
2022/01/31 17:59:40;;;;;;;14.40;4.22;;;2.00;99.90;;;;;;6277298;22;20028;-84
2022/01/31 18:02:34;;;;;;;16.60;4.20;;;2.00;99.90;;;;;;6276021;22;20075;-85
2022/01/31 18:05:26;;;;;;;27.83;5.70;;;1.90;99.90;;;;;;6254306;22;20311;-86
2022/01/31 18:08:13;;;;;;;15.15;3.72;;;1.90;99.90;;;;;;6252862;22;20038;-84
2022/01/31 18:11:01;;;;;;;17.70;4.18;;;1.90;99.90;;;;;;6273439;22;20295;-83
2022/01/31 18:13:48;;;;;;;13.23;3.63;;;1.90;99.90;;;;;;6254593;22;20050;-84
2022/01/31 18:16:36;;;;;;;12.60;4.18;;;1.80;99.90;;;;;;6275817;22;20380;-82
2022/01/31 18:19:23;;;;;;;17.77;5.38;;;1.80;99.90;;;;;;6255118;22;20427;-81
2022/01/31 18:22:11;;;;;;;14.13;4.20;;;1.80;99.90;;;;;;6275102;22;20027;-83
2022/01/31 18:24:58;;;;;;;13.07;4.53;;;1.80;99.90;;;;;;6253764;22;20038;-83
2022/01/31 18:27:46;;;;;;;14.45;5.47;;;1.70;99.90;;;;;;6252583;22;20403;-83
2022/01/31 18:30:39;;;;;;;17.35;4.88;;;1.60;99.90;;;;;;6254859;22;20019;-85
2022/01/31 18:33:29;;;;;;;;;;;1.60;99.90;;;;;;6276967;22;20110;-84
2022/01/31 18:36:20;;;;;;;11.07;4.22;;;1.50;99.90;;;;;;6256371;22;19919;-83
2022/01/31 18:39:13;;;;;;;14.35;4.07;;;1.50;99.90;;;;;;6232532;22;20024;-82
2022/01/31 18:42:03;;;;;;;;;;;1.50;99.90;;;;;;6254148;22;20060;-84
2022/01/31 18:44:50;;;;;;;13.48;4.53;;;1.50;99.90;;;;;;6277103;22;19915;-84
2022/01/31 18:47:38;;;;;;;16.38;4.82;;;1.40;99.90;;;;;;6252086;22;20095;-81
2022/01/31 18:50:36;;;;;;;20.13;6.22;;;1.40;99.90;;;;;;6277003;22;20024;-83
2022/01/31 18:53:23;;;;;;;20.23;6.13;;;1.30;99.90;;;;;;6276007;22;20027;-83
2022/01/31 18:56:11;;;;;;;13.80;4.82;;;1.30;99.90;;;;;;6257078;22;20019;-85
2022/01/31 18:59:16;;;;;;;15.65;4.78;;;1.30;99.90;;;;;;6253741;22;20074;-84
2022/01/31 19:02:08;;;;;;;16.67;4.70;;;1.30;99.90;;;;;;6255201;22;20047;-83
2022/01/31 19:04:56;;;;;;;12.68;4.07;;;1.30;99.90;;;;;;6275904;22;20299;-82
2022/01/31 19:07:48;;;;;;;10.73;4.72;;;1.30;99.90;;;;;;6252052;22;20027;-85
2022/01/31 19:10:51;;;;;;;14.50;4.97;;;1.30;99.90;;;;;;6276419;22;20038;-84
2022/01/31 19:14:06;;;;;;;11.02;5.38;;;1.30;99.90;;;;;;6254392;22;20254;-83
2022/01/31 19:16:53;;;;;;;12.27;5.00;;;1.30;99.90;;;;;;6277312;22;20031;-86
2022/01/31 19:19:42;;;;;;;14.05;5.18;;;1.30;99.90;;;;;;6252213;22;20418;-85
2022/01/31 19:22:30;;;;;;;15.52;5.95;;;1.30;99.90;;;;;;6274684;22;20387;-84
2022/01/31 19:25:17;;;;;;;7.80;4.75;;;1.30;99.90;;;;;;6254503;22;20069;-86
2022/01/31 19:28:06;;;;;;;9.90;4.78;;;1.30;99.90;;;;;;6252149;22;20323;-83
2022/01/31 19:30:55;;;;;;;11.38;5.18;;;1.30;99.90;;;;;;6275988;22;20034;-84
2022/01/31 19:33:46;;;;;;;11.82;5.63;;;1.40;99.90;;;;;;6275813;22;20026;-84
2022/01/31 19:36:34;;;;;;;10.70;4.90;;;1.30;99.90;;;;;;6277606;22;20034;-84
2022/01/31 19:45:21;;;;;;;14.55;4.32;;;1.40;99.90;;;;;;6258970;22;20322;-84
2022/01/31 19:48:12;;;;;;;14.02;4.18;;;1.40;99.90;;;;;;6257377;22;20019;-85
2022/01/31 19:51:02;;;;;;;8.05;3.75;;;1.40;99.90;;;;;;6281092;22;20024;-84
2022/01/31 19:53:56;;;;;;;8.65;3.67;;;1.40;99.90;;;;;;6284314;22;20085;-84
2022/01/31 19:56:44;;;;;;;10.75;3.80;;;1.40;99.90;;;;;;6269671;22;20145;-86
2022/01/31 19:59:31;;;;;;;10.27;4.15;;;1.50;99.90;;;;;;6285978;22;20035;-85
2022/01/31 20:02:19;;;;;;;11.07;3.47;;;1.50;99.90;;;;;;6245980;22;20027;-87
2022/01/31 20:05:06;;;;;;;11.05;3.03;;;1.50;99.90;;;;;;6269082;22;20030;-85
2022/01/31 20:07:54;;;;;;;9.48;3.17;;;1.60;99.90;;;;;;6294656;22;20022;-86
2022/01/31 20:10:46;;;;;;;5.07;3.00;;;1.50;99.90;;;;;;6271189;22;20035;-87
2022/01/31 20:13:39;;;;;;;9.52;3.75;;;1.50;99.90;;;;;;6289836;22;20034;-87
2022/01/31 20:16:29;;;;;;;10.20;4.20;;;1.50;99.90;;;;;;6267204;22;20012;-85
2022/01/31 20:19:22;;;;;;;18.35;4.85;;;1.50;99.90;;;;;;6270989;22;20102;-84
2022/01/31 20:22:19;;;;;;;13.15;4.25;;;1.50;99.90;;;;;;6287759;22;20023;-87
2022/01/31 20:25:06;;;;;;;13.15;4.47;;;1.50;99.90;;;;;;6282197;22;20020;-85
2022/01/31 20:27:55;;;;;;;8.55;3.45;;;1.50;99.90;;;;;;6259951;22;20024;-86
2022/01/31 20:30:42;;;;;;;8.30;3.75;;;1.50;99.90;;;;;;6257737;22;20435;-84
2022/01/31 20:33:30;;;;;;;9.10;4.15;;;1.50;99.90;;;;;;6277556;22;20024;-86
2022/01/31 20:36:24;;;;;;;8.50;3.72;;;1.50;99.90;;;;;;6257148;22;20020;-85
2022/01/31 20:39:16;;;;;;;7.78;3.67;;;1.50;99.90;;;;;;6279474;22;20319;-85
2022/01/31 20:42:05;;;;;;;8.95;3.65;;;1.50;99.90;;;;;;6257981;22;20027;-85
2022/01/31 20:44:53;;;;;;;9.10;3.92;;;1.50;99.90;;;;;;6258468;22;20023;-86
2022/01/31 20:47:40;;;;;;;12.73;4.60;;;1.50;99.90;;;;;;6281840;22;20020;-84
2022/01/31 20:50:28;;;;;;;9.20;4.80;;;1.50;99.90;;;;;;6282109;22;20035;-84
2022/01/31 20:53:16;;;;;;;9.40;3.70;;;1.50;99.90;;;;;;6278678;22;20028;-84
2022/01/31 20:56:06;;;;;;;8.98;4.38;;;1.50;99.90;;;;;;6281947;22;20321;-85
2022/01/31 20:58:54;;;;;;;7.50;3.67;;;1.50;99.90;;;;;;6256267;22;20020;-85
2022/01/31 21:01:41;;;;;;;10.00;4.00;;;1.50;99.90;;;;;;6254803;22;20019;-86
2022/01/31 21:04:29;;;;;;;9.27;4.15;;;1.50;99.90;;;;;;6276153;22;20032;-85
2022/01/31 21:07:18;;;;;;;11.75;4.20;;;1.50;99.90;;;;;;6254861;22;20077;-84
2022/01/31 21:10:06;;;;;;;13.25;3.70;;;1.50;99.90;;;;;;6259841;22;20028;-86
2022/01/31 21:12:53;;;;;;;14.98;3.97;;;1.50;99.90;;;;;;6237844;22;20035;-85
2022/01/31 21:15:41;;;;;;;10.98;3.53;;;1.50;99.90;;;;;;6256363;22;20081;-85
2022/01/31 21:18:28;;;;;;;9.68;3.95;;;1.40;99.90;;;;;;6274804;22;20036;-85
2022/01/31 21:21:20;;;;;;;13.10;4.13;;;1.40;99.90;;;;;;6256423;22;20129;-85
2022/01/31 21:24:07;;;;;;;8.20;3.05;;;1.40;99.90;;;;;;6258834;22;20323;-84
2022/01/31 21:26:54;;;;;;;9.50;3.70;;;1.40;99.90;;;;;;6255310;22;20151;-84
2022/01/31 21:29:42;;;;;;;8.60;3.58;;;1.40;99.90;;;;;;6277289;22;20039;-85
2022/01/31 21:32:32;;;;;;;10.48;3.22;;;1.30;99.90;;;;;;6280281;22;20028;-84
2022/01/31 21:35:24;;;;;;;11.02;3.80;;;1.30;99.90;;;;;;6284770;22;20089;-84
2022/01/31 21:38:14;;;;;;;9.93;2.95;;;1.30;99.90;;;;;;6256721;22;20023;-84
2022/01/31 21:41:04;;;;;;;8.30;3.22;;;1.20;99.90;;;;;;6279961;22;20030;-84
2022/01/31 21:43:52;;;;;;;10.77;3.20;;;1.20;99.90;;;;;;6257484;22;20035;-85
2022/01/31 21:46:42;;;;;;;5.82;2.63;;;1.20;99.90;;;;;;6281866;22;20662;-85
2022/01/31 21:49:29;;;;;;;3.20;2.10;;;1.20;99.90;;;;;;6280199;22;20036;-85
2022/01/31 21:52:17;;;;;;;6.60;2.58;;;1.10;99.90;;;;;;6282782;22;20090;-83
2022/01/31 21:55:06;;;;;;;5.50;2.63;;;1.10;99.90;;;;;;6286794;22;20026;-84
2022/01/31 21:57:55;;;;;;;9.55;2.83;;;1.00;99.90;;;;;;6283996;22;20023;-84
2022/01/31 22:00:43;;;;;;;5.07;3.13;;;1.10;99.90;;;;;;6279611;22;20153;-84
2022/01/31 22:03:31;;;;;;;5.30;2.45;;;1.10;99.90;;;;;;6284369;22;20122;-84
2022/01/31 22:06:20;;;;;;;4.88;2.63;;;1.10;99.90;;;;;;6259159;22;20062;-85
2022/01/31 22:09:16;;;;;;;8.45;3.03;;;1.10;99.90;;;;;;6279999;22;20089;-82
2022/01/31 22:12:04;;;;;;;3.58;2.65;;;1.00;99.90;;;;;;6279414;22;20035;-85
2022/01/31 22:14:58;;;;;;;3.78;2.70;;;1.00;99.90;;;;;;6278264;22;20035;-85
2022/01/31 22:17:46;;;;;;;7.75;2.67;;;1.00;99.90;;;;;;6252211;22;20142;-84
2022/01/31 22:20:33;;;;;;;5.53;3.33;;;1.00;99.90;;;;;;6274541;22;20035;-86
2022/01/31 22:23:25;;;;;;;7.57;2.85;;;1.00;99.90;;;;;;6252524;22;20035;-85
2022/01/31 22:26:13;;;;;;;5.53;3.30;;;1.10;99.90;;;;;;6253616;22;20027;-86
2022/01/31 22:29:00;;;;;;;11.23;3.63;;;1.10;99.90;;;;;;6252314;22;20027;-85
2022/01/31 22:31:54;;;;;;;5.75;3.80;;;1.10;99.90;;;;;;6273897;22;20024;-86
2022/01/31 22:34:42;;;;;;;8.40;3.47;;;1.20;99.90;;;;;;6275355;22;20032;-84
2022/01/31 22:37:29;;;;;;;11.88;4.35;;;1.30;99.90;;;;;;6274783;22;20105;-86
2022/01/31 22:40:16;;;;;;;10.77;3.75;;;1.30;99.90;;;;;;6272998;22;20055;-84
2022/01/31 22:43:04;;;;;;;15.55;4.05;;;1.30;99.90;;;;;;6252526;22;20024;-85
2022/01/31 22:45:51;;;;;;;10.57;3.65;;;1.40;99.90;;;;;;6273047;22;20038;-86
2022/01/31 22:48:38;;;;;;;11.50;3.22;;;1.40;99.90;;;;;;6252622;22;20091;-86
2022/01/31 22:51:26;;;;;;;9.38;3.92;;;1.50;99.90;;;;;;6252508;22;20066;-86
2022/01/31 22:54:16;;;;;;;10.93;3.67;;;1.50;99.90;;;;;;6252097;22;20050;-86
2022/01/31 22:57:03;;;;;;;12.32;4.07;;;1.50;99.90;;;;;;6274565;22;20034;-85
2022/01/31 22:59:51;;;;;;;10.32;3.60;;;1.50;99.90;;;;;;6251685;22;20039;-86
2022/01/31 23:02:40;;;;;;;6.57;3.45;;;1.60;99.90;;;;;;6275214;22;20104;-86
2022/01/31 23:05:27;;;;;;;4.50;3.03;;;1.60;99.90;;;;;;6251995;22;20036;-85
2022/01/31 23:08:15;;;;;;;10.02;3.60;;;1.60;99.90;;;;;;6275936;22;20419;-87
2022/01/31 23:11:09;;;;;;;6.80;3.15;;;1.60;99.90;;;;;;6252610;22;20046;-87
2022/01/31 23:14:04;;;;;;;10.75;3.20;;;1.50;99.90;;;;;;6273595;22;20027;-85
2022/01/31 23:44:53;;;;;;;8.27;3.28;;;1.70;99.90;;;;;;6272909;22;20027;-85
2022/01/31 23:53:24;;;;;;;7.65;2.83;;;1.60;99.90;;;;;;6273315;22;20028;-86
2022/01/31 23:56:25;;;;;;;9.40;3.08;;;1.50;99.90;;;;;;6251361;22;20039;-86
